sensor_id;sensor_type;location;lat;lon;timestamp;pressure;altitude;pressure_sealevel;temperature;humidity
62237;BME280;69163;48.778;2.308;2024-01-25T00:02:20;102402.22;;;19.30;32.34
62237;BME280;69163;48.778;2.308;2024-01-25T00:04:45;102404.88;;;18.82;32.35
62237;BME280;69163;48.778;2.308;2024-01-25T00:07:11;102403.17;;;18.81;32.37
62237;BME280;69163;48.778;2.308;2024-01-25T00:09:36;102403.43;;;19.05;32.38
62237;BME280;69163;48.778;2.308;2024-01-25T00:12:01;102396.66;;;18.80;32.39
62237;BME280;69163;48.778;2.308;2024-01-25T00:14:27;102393.55;;;19.05;32.40
62237;BME280;69163;48.778;2.308;2024-01-25T00:16:52;102389.71;;;18.81;32.38
62237;BME280;69163;48.778;2.308;2024-01-25T00:19:16;102387.38;;;18.80;32.41
62237;BME280;69163;48.778;2.308;2024-01-25T00:21:43;102385.64;;;19.28;32.40
62237;BME280;69163;48.778;2.308;2024-01-25T00:24:08;102380.17;;;18.80;32.40
62237;BME280;69163;48.778;2.308;2024-01-25T00:26:33;102370.54;;;18.79;32.46
62237;BME280;69163;48.778;2.308;2024-01-25T00:28:58;102365.52;;;19.29;32.40
62237;BME280;69163;48.778;2.308;2024-01-25T00:31:24;102363.38;;;18.80;32.42
62237;BME280;69163;48.778;2.308;2024-01-25T00:33:49;102365.05;;;18.81;32.43
62237;BME280;69163;48.778;2.308;2024-01-25T00:36:16;102363.72;;;18.80;32.43
62237;BME280;69163;48.778;2.308;2024-01-25T00:38:40;102363.31;;;18.79;32.44
62237;BME280;69163;48.778;2.308;2024-01-25T00:41:08;102364.31;;;18.81;32.44
62237;BME280;69163;48.778;2.308;2024-01-25T00:43:31;102360.22;;;18.78;32.46
62237;BME280;69163;48.778;2.308;2024-01-25T00:45:56;102357.60;;;18.57;32.44
62237;BME280;69163;48.778;2.308;2024-01-25T00:48:21;102357.57;;;18.81;32.44
62237;BME280;69163;48.778;2.308;2024-01-25T00:50:46;102358.44;;;19.27;32.44
62237;BME280;69163;48.778;2.308;2024-01-25T00:53:11;102352.12;;;18.79;32.45
62237;BME280;69163;48.778;2.308;2024-01-25T00:55:37;102351.06;;;18.82;32.44
62237;BME280;69163;48.778;2.308;2024-01-25T00:58:02;102346.65;;;19.28;32.45
62237;BME280;69163;48.778;2.308;2024-01-25T01:00:28;102344.38;;;19.07;32.43
62237;BME280;69163;48.778;2.308;2024-01-25T01:02:53;102349.77;;;18.84;32.42
62237;BME280;69163;48.778;2.308;2024-01-25T01:05:17;102345.77;;;19.06;32.44
62237;BME280;69163;48.778;2.308;2024-01-25T01:07:43;102344.36;;;18.81;32.46
62237;BME280;69163;48.778;2.308;2024-01-25T01:10:08;102346.21;;;18.82;32.44
62237;BME280;69163;48.778;2.308;2024-01-25T01:12:33;102342.83;;;18.81;32.44
62237;BME280;69163;48.778;2.308;2024-01-25T01:14:58;102340.07;;;19.07;32.42
62237;BME280;69163;48.778;2.308;2024-01-25T01:17:23;102339.19;;;18.82;32.41
62237;BME280;69163;48.778;2.308;2024-01-25T01:19:49;102340.76;;;18.82;32.45
62237;BME280;69163;48.778;2.308;2024-01-25T01:22:14;102341.19;;;19.07;32.44
62237;BME280;69163;48.778;2.308;2024-01-25T01:24:40;102341.20;;;18.84;32.44
62237;BME280;69163;48.778;2.308;2024-01-25T01:27:04;102334.76;;;18.84;32.44
62237;BME280;69163;48.778;2.308;2024-01-25T01:29:30;102330.61;;;18.85;32.41
62237;BME280;69163;48.778;2.308;2024-01-25T01:31:55;102332.48;;;18.85;32.44
62237;BME280;69163;48.778;2.308;2024-01-25T01:34:20;102330.31;;;18.85;32.41
62237;BME280;69163;48.778;2.308;2024-01-25T01:36:46;102333.29;;;18.85;32.43
62237;BME280;69163;48.778;2.308;2024-01-25T01:39:11;102337.78;;;18.84;32.43
62237;BME280;69163;48.778;2.308;2024-01-25T01:41:35;102336.27;;;19.09;32.42
62237;BME280;69163;48.778;2.308;2024-01-25T01:44:01;102337.13;;;18.87;32.42
62237;BME280;69163;48.778;2.308;2024-01-25T01:46:32;102334.85;;;18.86;32.42
62237;BME280;69163;48.778;2.308;2024-01-25T01:48:52;102335.67;;;18.85;32.43
62237;BME280;69163;48.778;2.308;2024-01-25T01:51:17;102335.90;;;18.84;32.45
62237;BME280;69163;48.778;2.308;2024-01-25T01:53:42;102332.72;;;18.60;32.44
62237;BME280;69163;48.778;2.308;2024-01-25T01:56:07;102330.38;;;18.84;32.43
62237;BME280;69163;48.778;2.308;2024-01-25T01:58:33;102332.45;;;19.09;32.43
62237;BME280;69163;48.778;2.308;2024-01-25T02:00:59;102332.48;;;18.85;32.43
62237;BME280;69163;48.778;2.308;2024-01-25T02:03:23;102331.11;;;18.84;32.44
62237;BME280;69163;48.778;2.308;2024-01-25T02:05:49;102329.77;;;19.08;32.45
62237;BME280;69163;48.778;2.308;2024-01-25T02:08:15;102328.97;;;18.86;32.43
62237;BME280;69163;48.778;2.308;2024-01-25T02:10:38;102323.87;;;18.83;32.38
62237;BME280;69163;48.778;2.308;2024-01-25T02:13:05;102328.79;;;18.86;32.42
62237;BME280;69163;48.778;2.308;2024-01-25T02:15:30;102333.32;;;18.85;32.43
62237;BME280;69163;48.778;2.308;2024-01-25T02:17:55;102333.72;;;18.84;32.44
62237;BME280;69163;48.778;2.308;2024-01-25T02:20:21;102335.00;;;19.10;32.41
62237;BME280;69163;48.778;2.308;2024-01-25T02:22:45;102330.89;;;19.08;32.44
62237;BME280;69163;48.778;2.308;2024-01-25T02:25:11;102326.58;;;18.84;32.44
62237;BME280;69163;48.778;2.308;2024-01-25T02:27:36;102326.64;;;18.85;32.42
62237;BME280;69163;48.778;2.308;2024-01-25T02:30:01;102326.66;;;18.86;32.43
62237;BME280;69163;48.778;2.308;2024-01-25T02:32:26;102321.92;;;18.85;32.42
62237;BME280;69163;48.778;2.308;2024-01-25T02:34:52;102324.63;;;18.85;32.42
62237;BME280;69163;48.778;2.308;2024-01-25T02:37:17;102324.30;;;18.84;32.43
62237;BME280;69163;48.778;2.308;2024-01-25T02:39:42;102329.44;;;18.84;32.42
62237;BME280;69163;48.778;2.308;2024-01-25T02:42:08;102329.91;;;18.86;32.39
62237;BME280;69163;48.778;2.308;2024-01-25T02:44:32;102330.36;;;18.87;32.39
62237;BME280;69163;48.778;2.308;2024-01-25T02:46:58;102334.85;;;18.88;32.39
62237;BME280;69163;48.778;2.308;2024-01-25T02:49:25;102328.99;;;18.87;32.39
62237;BME280;69163;48.778;2.308;2024-01-25T02:51:48;102328.76;;;18.88;32.38
62237;BME280;69163;48.778;2.308;2024-01-25T02:54:14;102328.67;;;18.88;32.38
62237;BME280;69163;48.778;2.308;2024-01-25T02:56:39;102327.27;;;18.89;32.37
62237;BME280;69163;48.778;2.308;2024-01-25T02:59:04;102321.08;;;19.11;32.35
62237;BME280;69163;48.778;2.308;2024-01-25T03:01:39;102323.54;;;18.90;32.33
62237;BME280;69163;48.778;2.308;2024-01-25T03:03:55;102323.77;;;18.87;32.36
62237;BME280;69163;48.778;2.308;2024-01-25T03:06:20;102323.68;;;18.87;32.37
62237;BME280;69163;48.778;2.308;2024-01-25T03:08:46;102324.52;;;18.88;32.37
62237;BME280;69163;48.778;2.308;2024-01-25T03:11:11;102324.77;;;18.89;32.35
62237;BME280;69163;48.778;2.308;2024-01-25T03:13:37;102324.39;;;18.88;32.35
62237;BME280;69163;48.778;2.308;2024-01-25T03:16:05;102322.58;;;18.88;32.35
62237;BME280;69163;48.778;2.308;2024-01-25T03:18:27;102322.46;;;18.87;32.35
62237;BME280;69163;48.778;2.308;2024-01-25T03:20:51;102319.49;;;18.88;32.34
62237;BME280;69163;48.778;2.308;2024-01-25T03:23:17;102317.20;;;19.11;32.34
62237;BME280;69163;48.778;2.308;2024-01-25T03:25:44;102318.25;;;18.88;32.32
62237;BME280;69163;48.778;2.308;2024-01-25T03:28:07;102313.79;;;19.11;32.37
62237;BME280;69163;48.778;2.308;2024-01-25T03:30:34;102314.27;;;18.88;32.35
62237;BME280;69163;48.778;2.308;2024-01-25T03:32:58;102318.85;;;18.63;32.34
62237;BME280;69163;48.778;2.308;2024-01-25T03:35:23;102321.38;;;18.86;32.36
62237;BME280;69163;48.778;2.308;2024-01-25T03:37:49;102319.79;;;19.11;32.35
62237;BME280;69163;48.778;2.308;2024-01-25T03:40:16;102311.70;;;18.86;32.35
62237;BME280;69163;48.778;2.308;2024-01-25T03:42:39;102310.72;;;18.65;32.31
62237;BME280;69163;48.778;2.308;2024-01-25T03:45:06;102313.40;;;19.36;32.32
62237;BME280;69163;48.778;2.308;2024-01-25T03:47:30;102312.18;;;18.87;32.33
62237;BME280;69163;48.778;2.308;2024-01-25T03:49:54;102308.92;;;18.87;32.32
62237;BME280;69163;48.778;2.308;2024-01-25T03:52:20;102310.21;;;19.12;32.32
62237;BME280;69163;48.778;2.308;2024-01-25T03:54:46;102313.49;;;18.89;32.31
62237;BME280;69163;48.778;2.308;2024-01-25T03:57:10;102315.56;;;18.90;32.28
62237;BME280;69163;48.778;2.308;2024-01-25T03:59:36;102310.43;;;18.89;32.30
62237;BME280;69163;48.778;2.308;2024-01-25T04:02:04;102304.42;;;18.66;32.29
62237;BME280;69163;48.778;2.308;2024-01-25T04:04:26;102302.60;;;18.90;32.30
62237;BME280;69163;48.778;2.308;2024-01-25T04:06:52;102308.73;;;19.11;32.31
62237;BME280;69163;48.778;2.308;2024-01-25T04:09:17;102313.04;;;18.64;32.32
62237;BME280;69163;48.778;2.308;2024-01-25T04:11:42;102308.47;;;19.35;32.31
62237;BME280;69163;48.778;2.308;2024-01-25T04:14:08;102301.77;;;19.12;32.31
62237;BME280;69163;48.778;2.308;2024-01-25T04:16:33;102303.43;;;18.88;32.29
62237;BME280;69163;48.778;2.308;2024-01-25T04:18:58;102308.95;;;19.11;32.34
62237;BME280;69163;48.778;2.308;2024-01-25T04:21:23;102310.13;;;18.89;32.28
62237;BME280;69163;48.778;2.308;2024-01-25T04:23:49;102310.14;;;18.88;32.29
62237;BME280;69163;48.778;2.308;2024-01-25T04:26:15;102308.17;;;19.13;32.28
62237;BME280;69163;48.778;2.308;2024-01-25T04:28:39;102308.22;;;18.65;32.29
62237;BME280;69163;48.778;2.308;2024-01-25T04:31:04;102311.86;;;18.90;32.27
62237;BME280;69163;48.778;2.308;2024-01-25T04:33:29;102310.43;;;18.89;32.28
62237;BME280;69163;48.778;2.308;2024-01-25T04:35:55;102310.98;;;18.90;32.28
62237;BME280;69163;48.778;2.308;2024-01-25T04:38:20;102312.67;;;18.90;32.27
62237;BME280;69163;48.778;2.308;2024-01-25T04:40:45;102307.33;;;19.13;32.27
62237;BME280;69163;48.778;2.308;2024-01-25T04:43:11;102304.81;;;18.90;32.26
62237;BME280;69163;48.778;2.308;2024-01-25T04:45:36;102304.64;;;18.91;32.26
62237;BME280;69163;48.778;2.308;2024-01-25T04:48:01;102302.49;;;19.39;32.26
62237;BME280;69163;48.778;2.308;2024-01-25T04:50:26;102296.27;;;18.64;32.28
62237;BME280;69163;48.778;2.308;2024-01-25T04:52:52;102288.62;;;18.64;32.28
62237;BME280;69163;48.778;2.308;2024-01-25T04:55:17;102293.15;;;18.90;32.27
62237;BME280;69163;48.778;2.308;2024-01-25T04:57:42;102290.00;;;19.13;32.28
62237;BME280;69163;48.778;2.308;2024-01-25T05:00:09;102285.70;;;18.91;32.24
62237;BME280;69163;48.778;2.308;2024-01-25T05:02:32;102285.82;;;19.15;32.25
62237;BME280;69163;48.778;2.308;2024-01-25T05:04:58;102281.38;;;18.89;32.25
62237;BME280;69163;48.778;2.308;2024-01-25T05:07:23;102277.61;;;18.89;32.24
62237;BME280;69163;48.778;2.308;2024-01-25T05:09:48;102276.82;;;19.38;32.24
62237;BME280;69163;48.778;2.308;2024-01-25T05:12:14;102276.12;;;18.90;32.26
62237;BME280;69163;48.778;2.308;2024-01-25T05:14:38;102278.43;;;18.88;32.26
62237;BME280;69163;48.778;2.308;2024-01-25T05:17:04;102275.09;;;19.38;32.25
62237;BME280;69163;48.778;2.308;2024-01-25T05:19:29;102271.08;;;18.90;32.24
62237;BME280;69163;48.778;2.308;2024-01-25T05:21:55;102269.28;;;18.91;32.21
62237;BME280;69163;48.778;2.308;2024-01-25T05:24:19;102268.29;;;18.93;32.21
62237;BME280;69163;48.778;2.308;2024-01-25T05:26:46;102267.78;;;19.39;32.23
62237;BME280;69163;48.778;2.308;2024-01-25T05:29:10;102263.92;;;19.14;32.24
62237;BME280;69163;48.778;2.308;2024-01-25T05:31:36;102263.01;;;18.92;32.23
62237;BME280;69163;48.778;2.308;2024-01-25T05:34:02;102260.04;;;18.92;32.21
62237;BME280;69163;48.778;2.308;2024-01-25T05:36:26;102257.61;;;18.90;32.23
62237;BME280;69163;48.778;2.308;2024-01-25T05:38:52;102259.36;;;18.89;32.24
62237;BME280;69163;48.778;2.308;2024-01-25T05:41:17;102261.32;;;18.92;32.21
62237;BME280;69163;48.778;2.308;2024-01-25T05:43:41;102259.02;;;18.91;32.22
62237;BME280;69163;48.778;2.308;2024-01-25T05:46:07;102258.83;;;18.92;32.21
62237;BME280;69163;48.778;2.308;2024-01-25T05:48:33;102253.03;;;18.91;32.20
62237;BME280;69163;48.778;2.308;2024-01-25T05:50:59;102255.31;;;19.16;32.20
62237;BME280;69163;48.778;2.308;2024-01-25T05:53:23;102257.22;;;18.92;32.21
62237;BME280;69163;48.778;2.308;2024-01-25T05:55:48;102263.09;;;18.93;32.20
62237;BME280;69163;48.778;2.308;2024-01-25T05:58:14;102268.29;;;18.93;32.19
62237;BME280;69163;48.778;2.308;2024-01-25T06:00:39;102273.81;;;18.93;32.19
62237;BME280;69163;48.778;2.308;2024-01-25T06:03:09;102269.95;;;18.92;32.19
62237;BME280;69163;48.778;2.308;2024-01-25T06:05:29;102272.35;;;19.17;32.18
62237;BME280;69163;48.778;2.308;2024-01-25T06:07:55;102271.46;;;18.93;32.17
62237;BME280;69163;48.778;2.308;2024-01-25T06:10:19;102271.82;;;18.93;32.19
62237;BME280;69163;48.778;2.308;2024-01-25T06:12:45;102270.16;;;18.91;32.20
62237;BME280;69163;48.778;2.308;2024-01-25T06:15:12;102270.85;;;18.92;32.18
62237;BME280;69163;48.778;2.308;2024-01-25T06:17:35;102272.68;;;18.93;32.18
62237;BME280;69163;48.778;2.308;2024-01-25T06:20:01;102272.39;;;18.91;32.20
62237;BME280;69163;48.778;2.308;2024-01-25T06:22:26;102274.88;;;18.94;32.16
62237;BME280;69163;48.778;2.308;2024-01-25T06:24:51;102271.80;;;18.94;32.16
62237;BME280;69163;48.778;2.308;2024-01-25T06:27:17;102272.75;;;18.93;32.16
62237;BME280;69163;48.778;2.308;2024-01-25T06:29:42;102276.54;;;18.93;32.17
62237;BME280;69163;48.778;2.308;2024-01-25T06:32:07;102278.32;;;18.94;32.15
62237;BME280;69163;48.778;2.308;2024-01-25T06:34:32;102277.46;;;18.93;32.13
62237;BME280;69163;48.778;2.308;2024-01-25T06:36:58;102272.40;;;18.93;32.17
62237;BME280;69163;48.778;2.308;2024-01-25T06:39:22;102268.07;;;18.93;32.16
62237;BME280;69163;48.778;2.308;2024-01-25T06:41:48;102266.00;;;18.94;32.15
62237;BME280;69163;48.778;2.308;2024-01-25T06:44:13;102265.41;;;18.94;32.15
62237;BME280;69163;48.778;2.308;2024-01-25T06:46:38;102261.67;;;18.94;32.13
62237;BME280;69163;48.778;2.308;2024-01-25T06:49:04;102258.70;;;18.93;32.15
62237;BME280;69163;48.778;2.308;2024-01-25T06:51:30;102260.18;;;18.94;32.15
62237;BME280;69163;48.778;2.308;2024-01-25T06:53:55;102261.55;;;18.93;32.16
62237;BME280;69163;48.778;2.308;2024-01-25T06:56:20;102258.51;;;18.92;32.17
62237;BME280;69163;48.778;2.308;2024-01-25T06:58:44;102257.99;;;18.94;32.15
62237;BME280;69163;48.778;2.308;2024-01-25T07:01:11;102255.49;;;18.94;32.15
62237;BME280;69163;48.778;2.308;2024-01-25T07:03:36;102251.61;;;18.94;32.14
62237;BME280;69163;48.778;2.308;2024-01-25T07:06:00;102248.58;;;18.93;32.16
62237;BME280;69163;48.778;2.308;2024-01-25T07:08:26;102247.88;;;19.17;32.15
62237;BME280;69163;48.778;2.308;2024-01-25T07:10:51;102250.93;;;19.18;32.15
62237;BME280;69163;48.778;2.308;2024-01-25T07:13:16;102248.64;;;18.93;32.15
62237;BME280;69163;48.778;2.308;2024-01-25T07:15:42;102250.85;;;18.95;32.14
62237;BME280;69163;48.778;2.308;2024-01-25T07:18:07;102251.70;;;18.93;32.16
62237;BME280;69163;48.778;2.308;2024-01-25T07:20:33;102252.26;;;19.17;32.16
62237;BME280;69163;48.778;2.308;2024-01-25T07:22:57;102256.83;;;18.95;32.14
62237;BME280;69163;48.778;2.308;2024-01-25T07:25:23;102256.69;;;18.93;32.15
62237;BME280;69163;48.778;2.308;2024-01-25T07:27:48;102256.55;;;19.18;32.15
62237;BME280;69163;48.778;2.308;2024-01-25T07:30:14;102251.21;;;18.94;32.15
62237;BME280;69163;48.778;2.308;2024-01-25T07:32:38;102250.25;;;19.17;32.14
62237;BME280;69163;48.778;2.308;2024-01-25T07:35:04;102252.59;;;18.95;32.13
62237;BME280;69163;48.778;2.308;2024-01-25T07:37:29;102254.35;;;18.72;32.12
62237;BME280;69163;48.778;2.308;2024-01-25T07:39:55;102252.06;;;18.97;32.11
62237;BME280;69163;48.778;2.308;2024-01-25T07:42:20;102249.45;;;19.42;32.12
62237;BME280;69163;48.778;2.308;2024-01-25T07:44:45;102248.05;;;18.96;32.12
62237;BME280;69163;48.778;2.308;2024-01-25T07:47:09;102238.29;;;18.95;32.12
62237;BME280;69163;48.778;2.308;2024-01-25T07:49:35;102242.34;;;18.96;32.10
62237;BME280;69163;48.778;2.308;2024-01-25T07:52:01;102236.82;;;18.96;32.10
62237;BME280;69163;48.778;2.308;2024-01-25T07:54:25;102236.89;;;18.72;32.12
62237;BME280;69163;48.778;2.308;2024-01-25T07:56:51;102235.41;;;18.96;32.09
62237;BME280;69163;48.778;2.308;2024-01-25T07:59:16;102235.56;;;18.96;32.10
62237;BME280;69163;48.778;2.308;2024-01-25T08:01:41;102238.24;;;18.95;32.10
62237;BME280;69163;48.778;2.308;2024-01-25T08:04:08;102238.95;;;18.96;32.10
62237;BME280;69163;48.778;2.308;2024-01-25T08:06:33;102244.26;;;18.97;32.10
62237;BME280;69163;48.778;2.308;2024-01-25T08:08:57;102242.69;;;19.20;32.11
62237;BME280;69163;48.778;2.308;2024-01-25T08:11:23;102240.44;;;18.95;32.10
62237;BME280;69163;48.778;2.308;2024-01-25T08:13:48;102241.57;;;18.94;32.12
62237;BME280;69163;48.778;2.308;2024-01-25T08:16:13;102244.33;;;18.93;32.13
62237;BME280;69163;48.778;2.308;2024-01-25T08:18:38;102242.51;;;18.93;32.13
62237;BME280;69163;48.778;2.308;2024-01-25T08:21:04;102237.25;;;18.93;32.12
62237;BME280;69163;48.778;2.308;2024-01-25T08:23:29;102240.05;;;18.93;32.13
62237;BME280;69163;48.778;2.308;2024-01-25T08:25:53;102245.42;;;18.94;32.11
62237;BME280;69163;48.778;2.308;2024-01-25T08:28:20;102240.21;;;18.93;32.14
62237;BME280;69163;48.778;2.308;2024-01-25T08:30:45;102238.02;;;18.93;32.13
62237;BME280;69163;48.778;2.308;2024-01-25T08:33:09;102237.44;;;18.93;32.15
62237;BME280;69163;48.778;2.308;2024-01-25T08:35:35;102238.15;;;19.16;32.15
62237;BME280;69163;48.778;2.308;2024-01-25T08:38:00;102244.68;;;18.92;32.15
62237;BME280;69163;48.778;2.308;2024-01-25T08:40:25;102244.35;;;18.92;32.15
62237;BME280;69163;48.778;2.308;2024-01-25T08:42:51;102245.59;;;19.16;32.16
62237;BME280;69163;48.778;2.308;2024-01-25T08:45:16;102246.15;;;19.16;32.16
62237;BME280;69163;48.778;2.308;2024-01-25T08:47:41;102247.42;;;18.94;32.14
62237;BME280;69163;48.778;2.308;2024-01-25T08:50:08;102248.77;;;18.92;32.15
62237;BME280;69163;48.778;2.308;2024-01-25T08:52:32;102251.03;;;18.94;32.15
62237;BME280;69163;48.778;2.308;2024-01-25T08:54:56;102252.70;;;18.97;32.12
62237;BME280;69163;48.778;2.308;2024-01-25T08:57:22;102254.69;;;19.21;32.12
62237;BME280;69163;48.778;2.308;2024-01-25T08:59:47;102262.13;;;18.94;32.15
62237;BME280;69163;48.778;2.308;2024-01-25T09:02:13;102259.02;;;18.96;32.13
62237;BME280;69163;48.778;2.308;2024-01-25T09:04:38;102260.34;;;18.95;32.14
62237;BME280;69163;48.778;2.308;2024-01-25T09:07:03;102259.29;;;18.95;32.14
62237;BME280;69163;48.778;2.308;2024-01-25T09:09:28;102261.36;;;18.95;32.15
62237;BME280;69163;48.778;2.308;2024-01-25T09:11:53;102258.55;;;18.94;32.15
62237;BME280;69163;48.778;2.308;2024-01-25T09:14:19;102262.65;;;19.19;32.16
62237;BME280;69163;48.778;2.308;2024-01-25T09:16:44;102264.43;;;18.94;32.18
62237;BME280;69163;48.778;2.308;2024-01-25T09:19:09;102260.16;;;18.92;32.19
62237;BME280;69163;48.778;2.308;2024-01-25T09:21:34;102259.33;;;18.94;32.19
62237;BME280;69163;48.778;2.308;2024-01-25T09:24:00;102259.54;;;18.94;32.20
62237;BME280;69163;48.778;2.308;2024-01-25T09:26:25;102260.05;;;18.92;32.20
62237;BME280;69163;48.778;2.308;2024-01-25T09:28:51;102263.95;;;18.95;32.21
62237;BME280;69163;48.778;2.308;2024-01-25T09:31:16;102259.40;;;18.93;32.21
62237;BME280;69163;48.778;2.308;2024-01-25T09:33:40;102258.04;;;18.93;32.23
62237;BME280;69163;48.778;2.308;2024-01-25T09:36:07;102259.18;;;18.94;32.22
62237;BME280;69163;48.778;2.308;2024-01-25T09:38:32;102260.73;;;18.93;32.25
62237;BME280;69163;48.778;2.308;2024-01-25T09:40:56;102259.50;;;18.93;32.25
62237;BME280;69163;48.778;2.308;2024-01-25T09:43:22;102258.71;;;18.96;32.25
62237;BME280;69163;48.778;2.308;2024-01-25T09:45:50;102259.67;;;18.94;32.27
62237;BME280;69163;48.778;2.308;2024-01-25T09:48:13;102260.35;;;18.92;32.28
62237;BME280;69163;48.778;2.308;2024-01-25T09:50:38;102258.06;;;18.93;32.30
62237;BME280;69163;48.778;2.308;2024-01-25T09:53:05;102261.42;;;18.94;32.28
62237;BME280;69163;48.778;2.308;2024-01-25T09:55:28;102263.75;;;18.93;32.31
62237;BME280;69163;48.778;2.308;2024-01-25T09:57:54;102261.15;;;19.39;32.32
62237;BME280;69163;48.778;2.308;2024-01-25T10:00:19;102261.83;;;18.92;32.34
62237;BME280;69163;48.778;2.308;2024-01-25T10:02:43;102261.80;;;18.93;32.32
62237;BME280;69163;48.778;2.308;2024-01-25T10:05:09;102261.51;;;18.92;32.34
62237;BME280;69163;48.778;2.308;2024-01-25T10:07:38;102266.21;;;18.93;32.34
62237;BME280;69163;48.778;2.308;2024-01-25T10:10:00;102269.44;;;18.68;32.36
62237;BME280;69163;48.778;2.308;2024-01-25T10:12:25;102270.71;;;19.17;32.36
62237;BME280;69163;48.778;2.308;2024-01-25T10:14:50;102274.11;;;18.93;32.37
62237;BME280;69163;48.778;2.308;2024-01-25T10:17:16;102266.59;;;18.92;32.39
62237;BME280;69163;48.778;2.308;2024-01-25T10:19:43;102270.41;;;18.91;32.40
62237;BME280;69163;48.778;2.308;2024-01-25T10:22:06;102276.01;;;18.90;32.43
62237;BME280;69163;48.778;2.308;2024-01-25T10:24:32;102279.50;;;18.91;32.43
62237;BME280;69163;48.778;2.308;2024-01-25T10:26:56;102276.38;;;18.91;32.43
62237;BME280;69163;48.778;2.308;2024-01-25T10:29:26;102272.57;;;19.37;32.46
62237;BME280;69163;48.778;2.308;2024-01-25T10:31:47;102273.26;;;18.92;32.47
62237;BME280;69163;48.778;2.308;2024-01-25T10:34:13;102275.92;;;18.90;32.47
62237;BME280;69163;48.778;2.308;2024-01-25T10:36:37;102276.83;;;19.16;32.46
62237;BME280;69163;48.778;2.308;2024-01-25T10:39:04;102280.82;;;18.89;32.50
62237;BME280;69163;48.778;2.308;2024-01-25T10:41:28;102275.68;;;18.90;32.52
62237;BME280;69163;48.778;2.308;2024-01-25T10:43:53;102272.90;;;19.13;32.52
62237;BME280;69163;48.778;2.308;2024-01-25T10:46:19;102267.33;;;18.90;32.53
62237;BME280;69163;48.778;2.308;2024-01-25T10:48:44;102266.82;;;18.89;32.55
62237;BME280;69163;48.778;2.308;2024-01-25T10:51:09;102265.49;;;18.90;32.55
62237;BME280;69163;48.778;2.308;2024-01-25T10:53:36;102259.66;;;18.91;32.55
62237;BME280;69163;48.778;2.308;2024-01-25T10:56:00;102259.69;;;18.91;32.55
62237;BME280;69163;48.778;2.308;2024-01-25T10:58:25;102264.35;;;18.92;32.56
62237;BME280;69163;48.778;2.308;2024-01-25T11:00:51;102260.96;;;18.92;32.56
62237;BME280;69163;48.778;2.308;2024-01-25T11:03:15;102260.39;;;19.14;32.57
62237;BME280;69163;48.778;2.308;2024-01-25T11:05:41;102260.86;;;18.92;32.56
62237;BME280;69163;48.778;2.308;2024-01-25T11:10:35;102249.77;;;18.90;32.57
62237;BME280;69163;48.778;2.308;2024-01-25T11:12:57;102245.49;;;18.92;32.57
62237;BME280;69163;48.778;2.308;2024-01-25T11:15:22;102238.59;;;18.67;32.58
62237;BME280;69163;48.778;2.308;2024-01-25T11:17:53;102240.15;;;18.90;32.60
62237;BME280;69163;48.778;2.308;2024-01-25T11:20:13;102231.98;;;19.12;32.64
62237;BME280;69163;48.778;2.308;2024-01-25T11:22:37;102229.63;;;19.35;32.64
62237;BME280;69163;48.778;2.308;2024-01-25T11:25:11;102226.75;;;18.89;32.65
62237;BME280;69163;48.778;2.308;2024-01-25T11:27:28;102220.89;;;18.89;32.64
62237;BME280;69163;48.778;2.308;2024-01-25T11:29:53;102212.41;;;18.89;32.64
62237;BME280;69163;48.778;2.308;2024-01-25T11:32:18;102200.98;;;18.88;32.67
62237;BME280;69163;48.778;2.308;2024-01-25T11:34:43;102194.69;;;18.88;32.68
62237;BME280;69163;48.778;2.308;2024-01-25T11:37:08;102194.48;;;18.89;32.68
62237;BME280;69163;48.778;2.308;2024-01-25T11:39:34;102195.19;;;18.89;32.67
62237;BME280;69163;48.778;2.308;2024-01-25T11:42:00;102187.02;;;18.87;32.67
62237;BME280;69163;48.778;2.308;2024-01-25T11:44:24;102178.22;;;19.10;32.70
62237;BME280;69163;48.778;2.308;2024-01-25T11:46:50;102171.91;;;18.89;32.67
62237;BME280;69163;48.778;2.308;2024-01-25T11:49:15;102164.40;;;18.87;32.69
62237;BME280;69163;48.778;2.308;2024-01-25T11:51:40;102163.51;;;18.88;32.72
62237;BME280;69163;48.778;2.308;2024-01-25T11:54:06;102167.41;;;19.33;32.73
62237;BME280;69163;48.778;2.308;2024-01-25T11:56:33;102159.43;;;18.87;32.68
62237;BME280;69163;48.778;2.308;2024-01-25T11:58:55;102151.81;;;18.86;32.73
62237;BME280;69163;48.778;2.308;2024-01-25T12:01:21;102151.40;;;19.10;32.74
62237;BME280;69163;48.778;2.308;2024-01-25T12:03:46;102152.23;;;18.85;32.73
62237;BME280;69163;48.778;2.308;2024-01-25T12:06:12;102148.45;;;19.32;32.78
62237;BME280;69163;48.778;2.308;2024-01-25T12:08:37;102143.38;;;18.84;32.76
62237;BME280;69163;48.778;2.308;2024-01-25T12:11:04;102147.71;;;18.85;32.76
62237;BME280;69163;48.778;2.308;2024-01-25T12:13:27;102146.39;;;18.85;32.79
62237;BME280;69163;48.778;2.308;2024-01-25T12:15:53;102145.16;;;19.32;32.81
62237;BME280;69163;48.778;2.308;2024-01-25T12:18:18;102137.89;;;18.84;32.79
62237;BME280;69163;48.778;2.308;2024-01-25T12:20:43;102136.13;;;18.84;32.80
62237;BME280;69163;48.778;2.308;2024-01-25T12:23:08;102126.44;;;19.08;32.79
62237;BME280;69163;48.778;2.308;2024-01-25T12:25:39;102119.97;;;19.09;32.79
62237;BME280;69163;48.778;2.308;2024-01-25T12:27:59;102116.09;;;18.88;32.78
62237;BME280;69163;48.778;2.308;2024-01-25T12:30:24;102113.31;;;19.10;32.79
62237;BME280;69163;48.778;2.308;2024-01-25T12:32:49;102115.02;;;19.09;32.80
62237;BME280;69163;48.778;2.308;2024-01-25T12:35:14;102111.78;;;18.85;32.80
62237;BME280;69163;48.778;2.308;2024-01-25T12:37:40;102104.70;;;19.33;32.81
62237;BME280;69163;48.778;2.308;2024-01-25T12:40:06;102096.28;;;18.85;32.78
62237;BME280;69163;48.778;2.308;2024-01-25T12:42:31;102080.58;;;18.84;32.79